sensor_id;sensor_type;location;lat;lon;timestamp;P1;durP1;ratioP1;P2;durP2;ratioP2
81544;SDS011;70990;50.618;7.346;2023-08-30T00:02:14;12.25;;;6.97;;
81544;SDS011;70990;50.618;7.346;2023-08-30T00:04:42;13.07;;;7.88;;
81544;SDS011;70990;50.618;7.346;2023-08-30T00:07:11;11.48;;;6.90;;
81544;SDS011;70990;50.618;7.346;2023-08-30T00:09:38;12.88;;;7.22;;
81544;SDS011;70990;50.618;7.346;2023-08-30T00:12:05;15.25;;;7.60;;
81544;SDS011;70990;50.618;7.346;2023-08-30T00:14:31;12.00;;;7.32;;
81544;SDS011;70990;50.618;7.346;2023-08-30T00:16:58;12.75;;;7.55;;
81544;SDS011;70990;50.618;7.346;2023-08-30T00:19:25;12.00;;;7.60;;
81544;SDS011;70990;50.618;7.346;2023-08-30T00:21:51;11.27;;;6.95;;
81544;SDS011;70990;50.618;7.346;2023-08-30T00:24:18;15.05;;;8.38;;
81544;SDS011;70990;50.618;7.346;2023-08-30T00:26:44;13.63;;;7.70;;
81544;SDS011;70990;50.618;7.346;2023-08-30T00:29:11;13.23;;;6.85;;
81544;SDS011;70990;50.618;7.346;2023-08-30T00:31:38;12.45;;;7.13;;
81544;SDS011;70990;50.618;7.346;2023-08-30T00:34:05;12.35;;;7.25;;
81544;SDS011;70990;50.618;7.346;2023-08-30T00:36:31;13.75;;;7.90;;
81544;SDS011;70990;50.618;7.346;2023-08-30T00:38:58;15.43;;;7.57;;
81544;SDS011;70990;50.618;7.346;2023-08-30T00:41:25;13.27;;;7.80;;
81544;SDS011;70990;50.618;7.346;2023-08-30T00:43:51;14.57;;;7.40;;
81544;SDS011;70990;50.618;7.346;2023-08-30T00:46:18;13.50;;;8.05;;
81544;SDS011;70990;50.618;7.346;2023-08-30T00:48:45;13.27;;;7.90;;
81544;SDS011;70990;50.618;7.346;2023-08-30T00:51:12;13.25;;;7.45;;
81544;SDS011;70990;50.618;7.346;2023-08-30T00:53:38;12.98;;;6.72;;
81544;SDS011;70990;50.618;7.346;2023-08-30T00:56:06;11.77;;;6.03;;
81544;SDS011;70990;50.618;7.346;2023-08-30T00:58:32;12.13;;;6.45;;
81544;SDS011;70990;50.618;7.346;2023-08-30T01:01:00;9.40;;;5.38;;
81544;SDS011;70990;50.618;7.346;2023-08-30T01:03:27;10.18;;;5.90;;
81544;SDS011;70990;50.618;7.346;2023-08-30T01:05:54;10.77;;;6.07;;
81544;SDS011;70990;50.618;7.346;2023-08-30T01:08:20;14.40;;;5.82;;
81544;SDS011;70990;50.618;7.346;2023-08-30T01:10:53;12.32;;;5.75;;
81544;SDS011;70990;50.618;7.346;2023-08-30T01:13:40;12.30;;;6.75;;
81544;SDS011;70990;50.618;7.346;2023-08-30T01:16:11;12.43;;;6.50;;
81544;SDS011;70990;50.618;7.346;2023-08-30T01:18:38;14.38;;;7.05;;
81544;SDS011;70990;50.618;7.346;2023-08-30T01:21:06;10.77;;;6.20;;
81544;SDS011;70990;50.618;7.346;2023-08-30T01:23:47;11.57;;;6.80;;
81544;SDS011;70990;50.618;7.346;2023-08-30T01:26:24;11.73;;;6.78;;
81544;SDS011;70990;50.618;7.346;2023-08-30T01:29:00;12.48;;;7.35;;
81544;SDS011;70990;50.618;7.346;2023-08-30T01:33:59;11.82;;;6.95;;
81544;SDS011;70990;50.618;7.346;2023-08-30T01:36:29;11.05;;;6.25;;
81544;SDS011;70990;50.618;7.346;2023-08-30T01:38:57;13.88;;;7.22;;
81544;SDS011;70990;50.618;7.346;2023-08-30T01:41:28;12.13;;;7.50;;
81544;SDS011;70990;50.618;7.346;2023-08-30T01:43:57;12.98;;;6.93;;
81544;SDS011;70990;50.618;7.346;2023-08-30T01:46:24;11.40;;;6.80;;
81544;SDS011;70990;50.618;7.346;2023-08-30T01:48:52;13.38;;;6.50;;
81544;SDS011;70990;50.618;7.346;2023-08-30T01:51:19;12.32;;;6.03;;
81544;SDS011;70990;50.618;7.346;2023-08-30T01:53:46;10.10;;;6.13;;
81544;SDS011;70990;50.618;7.346;2023-08-30T01:56:13;15.05;;;6.95;;
81544;SDS011;70990;50.618;7.346;2023-08-30T01:58:40;9.10;;;5.45;;
81544;SDS011;70990;50.618;7.346;2023-08-30T02:01:07;11.07;;;5.47;;
81544;SDS011;70990;50.618;7.346;2023-08-30T02:03:34;12.65;;;5.65;;
81544;SDS011;70990;50.618;7.346;2023-08-30T02:08:48;11.18;;;6.18;;
81544;SDS011;70990;50.618;7.346;2023-08-30T02:11:22;10.35;;;6.03;;
81544;SDS011;70990;50.618;7.346;2023-08-30T02:13:54;9.60;;;4.70;;
81544;SDS011;70990;50.618;7.346;2023-08-30T02:16:25;10.25;;;5.88;;
81544;SDS011;70990;50.618;7.346;2023-08-30T02:21:21;9.90;;;5.70;;
81544;SDS011;70990;50.618;7.346;2023-08-30T02:23:51;9.95;;;5.47;;
81544;SDS011;70990;50.618;7.346;2023-08-30T02:26:19;9.40;;;5.32;;
81544;SDS011;70990;50.618;7.346;2023-08-30T02:28:46;12.85;;;6.15;;
81544;SDS011;70990;50.618;7.346;2023-08-30T02:31:13;9.88;;;5.50;;
81544;SDS011;70990;50.618;7.346;2023-08-30T02:33:39;9.73;;;5.30;;
81544;SDS011;70990;50.618;7.346;2023-08-30T02:36:06;9.90;;;5.13;;
81544;SDS011;70990;50.618;7.346;2023-08-30T02:38:32;9.27;;;5.60;;
81544;SDS011;70990;50.618;7.346;2023-08-30T02:40:59;10.02;;;5.65;;
81544;SDS011;70990;50.618;7.346;2023-08-30T02:43:25;10.50;;;6.18;;
81544;SDS011;70990;50.618;7.346;2023-08-30T02:45:52;11.10;;;6.28;;
81544;SDS011;70990;50.618;7.346;2023-08-30T02:48:19;12.40;;;6.18;;
81544;SDS011;70990;50.618;7.346;2023-08-30T02:50:45;12.93;;;5.97;;
81544;SDS011;70990;50.618;7.346;2023-08-30T02:53:12;11.23;;;6.53;;
81544;SDS011;70990;50.618;7.346;2023-08-30T02:55:38;11.25;;;6.40;;
81544;SDS011;70990;50.618;7.346;2023-08-30T02:58:05;10.57;;;5.78;;
81544;SDS011;70990;50.618;7.346;2023-08-30T03:00:31;12.40;;;6.18;;
81544;SDS011;70990;50.618;7.346;2023-08-30T03:02:59;13.43;;;6.30;;
81544;SDS011;70990;50.618;7.346;2023-08-30T03:05:26;10.25;;;5.22;;
81544;SDS011;70990;50.618;7.346;2023-08-30T03:07:53;9.57;;;4.78;;
81544;SDS011;70990;50.618;7.346;2023-08-30T03:10:21;12.18;;;5.97;;
81544;SDS011;70990;50.618;7.346;2023-08-30T03:12:49;8.80;;;4.75;;
81544;SDS011;70990;50.618;7.346;2023-08-30T03:15:15;9.02;;;4.82;;
81544;SDS011;70990;50.618;7.346;2023-08-30T03:17:42;11.48;;;6.63;;
81544;SDS011;70990;50.618;7.346;2023-08-30T03:20:09;12.55;;;5.80;;
81544;SDS011;70990;50.618;7.346;2023-08-30T03:22:36;9.07;;;4.97;;
81544;SDS011;70990;50.618;7.346;2023-08-30T03:25:02;12.15;;;6.40;;
81544;SDS011;70990;50.618;7.346;2023-08-30T03:27:29;9.90;;;6.00;;
81544;SDS011;70990;50.618;7.346;2023-08-30T03:29:56;9.98;;;5.07;;
81544;SDS011;70990;50.618;7.346;2023-08-30T03:32:23;11.13;;;5.72;;
81544;SDS011;70990;50.618;7.346;2023-08-30T03:34:49;12.05;;;5.80;;
81544;SDS011;70990;50.618;7.346;2023-08-30T03:37:17;12.88;;;5.20;;
81544;SDS011;70990;50.618;7.346;2023-08-30T03:39:43;11.43;;;6.30;;
81544;SDS011;70990;50.618;7.346;2023-08-30T03:42:10;10.43;;;5.72;;
81544;SDS011;70990;50.618;7.346;2023-08-30T03:44:37;10.02;;;5.60;;
81544;SDS011;70990;50.618;7.346;2023-08-30T03:47:05;10.18;;;5.63;;
81544;SDS011;70990;50.618;7.346;2023-08-30T03:49:32;11.05;;;5.70;;
81544;SDS011;70990;50.618;7.346;2023-08-30T03:51:59;9.43;;;4.93;;
81544;SDS011;70990;50.618;7.346;2023-08-30T03:54:25;11.57;;;5.43;;
81544;SDS011;70990;50.618;7.346;2023-08-30T03:56:52;12.27;;;5.85;;
81544;SDS011;70990;50.618;7.346;2023-08-30T03:59:18;8.68;;;4.70;;
81544;SDS011;70990;50.618;7.346;2023-08-30T04:01:45;10.05;;;5.40;;
81544;SDS011;70990;50.618;7.346;2023-08-30T04:04:12;10.70;;;5.55;;
81544;SDS011;70990;50.618;7.346;2023-08-30T04:06:38;7.63;;;4.63;;
81544;SDS011;70990;50.618;7.346;2023-08-30T04:09:06;10.38;;;5.53;;
81544;SDS011;70990;50.618;7.346;2023-08-30T04:11:33;9.18;;;5.10;;
81544;SDS011;70990;50.618;7.346;2023-08-30T04:13:59;11.68;;;5.75;;
81544;SDS011;70990;50.618;7.346;2023-08-30T04:16:26;10.15;;;5.65;;
81544;SDS011;70990;50.618;7.346;2023-08-30T04:18:53;10.63;;;5.45;;
81544;SDS011;70990;50.618;7.346;2023-08-30T04:21:20;12.73;;;5.50;;
81544;SDS011;70990;50.618;7.346;2023-08-30T04:23:46;9.82;;;5.20;;
81544;SDS011;70990;50.618;7.346;2023-08-30T04:26:13;8.27;;;4.90;;
81544;SDS011;70990;50.618;7.346;2023-08-30T04:28:39;9.23;;;5.03;;
81544;SDS011;70990;50.618;7.346;2023-08-30T04:31:06;9.98;;;5.70;;
81544;SDS011;70990;50.618;7.346;2023-08-30T04:33:33;9.82;;;5.38;;
81544;SDS011;70990;50.618;7.346;2023-08-30T04:36:01;12.52;;;6.22;;
81544;SDS011;70990;50.618;7.346;2023-08-30T04:38:28;10.05;;;5.32;;
81544;SDS011;70990;50.618;7.346;2023-08-30T04:40:59;12.95;;;6.05;;
81544;SDS011;70990;50.618;7.346;2023-08-30T04:43:26;12.25;;;6.80;;
81544;SDS011;70990;50.618;7.346;2023-08-30T04:45:53;12.52;;;5.85;;
81544;SDS011;70990;50.618;7.346;2023-08-30T04:48:22;10.27;;;5.35;;
81544;SDS011;70990;50.618;7.346;2023-08-30T04:50:49;9.75;;;5.45;;
81544;SDS011;70990;50.618;7.346;2023-08-30T04:53:24;9.65;;;5.70;;
81544;SDS011;70990;50.618;7.346;2023-08-30T04:55:51;10.35;;;5.93;;
81544;SDS011;70990;50.618;7.346;2023-08-30T04:58:18;10.73;;;5.85;;
81544;SDS011;70990;50.618;7.346;2023-08-30T05:00:45;12.85;;;6.40;;
81544;SDS011;70990;50.618;7.346;2023-08-30T05:03:12;10.48;;;5.43;;
81544;SDS011;70990;50.618;7.346;2023-08-30T05:05:39;10.82;;;5.32;;
81544;SDS011;70990;50.618;7.346;2023-08-30T05:08:05;10.88;;;5.65;;
81544;SDS011;70990;50.618;7.346;2023-08-30T05:10:32;12.60;;;5.68;;
81544;SDS011;70990;50.618;7.346;2023-08-30T05:12:59;11.68;;;5.38;;
81544;SDS011;70990;50.618;7.346;2023-08-30T05:15:26;12.13;;;6.50;;
81544;SDS011;70990;50.618;7.346;2023-08-30T05:17:52;12.07;;;6.55;;
81544;SDS011;70990;50.618;7.346;2023-08-30T05:20:19;11.80;;;6.57;;
81544;SDS011;70990;50.618;7.346;2023-08-30T05:22:45;12.40;;;6.40;;
81544;SDS011;70990;50.618;7.346;2023-08-30T05:25:12;10.20;;;5.55;;
81544;SDS011;70990;50.618;7.346;2023-08-30T05:27:38;14.10;;;7.35;;
81544;SDS011;70990;50.618;7.346;2023-08-30T05:30:05;15.93;;;7.68;;
81544;SDS011;70990;50.618;7.346;2023-08-30T05:32:33;12.70;;;6.60;;
81544;SDS011;70990;50.618;7.346;2023-08-30T05:35:16;16.77;;;7.45;;
81544;SDS011;70990;50.618;7.346;2023-08-30T05:38:02;13.73;;;7.55;;
81544;SDS011;70990;50.618;7.346;2023-08-30T05:40:39;15.63;;;7.45;;
81544;SDS011;70990;50.618;7.346;2023-08-30T05:43:05;14.43;;;6.10;;
81544;SDS011;70990;50.618;7.346;2023-08-30T05:45:32;13.32;;;7.15;;
81544;SDS011;70990;50.618;7.346;2023-08-30T05:47:58;14.50;;;7.38;;
81544;SDS011;70990;50.618;7.346;2023-08-30T05:50:25;13.85;;;7.50;;
81544;SDS011;70990;50.618;7.346;2023-08-30T05:52:51;13.07;;;6.88;;
81544;SDS011;70990;50.618;7.346;2023-08-30T05:55:18;15.05;;;7.35;;
81544;SDS011;70990;50.618;7.346;2023-08-30T05:57:44;15.00;;;7.68;;
81544;SDS011;70990;50.618;7.346;2023-08-30T06:00:11;13.55;;;7.70;;
81544;SDS011;70990;50.618;7.346;2023-08-30T06:02:41;14.25;;;7.60;;
81544;SDS011;70990;50.618;7.346;2023-08-30T06:05:07;17.95;;;8.07;;
81544;SDS011;70990;50.618;7.346;2023-08-30T06:07:34;17.42;;;7.97;;
81544;SDS011;70990;50.618;7.346;2023-08-30T06:10:01;17.67;;;8.43;;
81544;SDS011;70990;50.618;7.346;2023-08-30T06:12:28;17.88;;;9.18;;
81544;SDS011;70990;50.618;7.346;2023-08-30T06:14:54;15.38;;;8.93;;
81544;SDS011;70990;50.618;7.346;2023-08-30T06:17:21;15.52;;;8.05;;
81544;SDS011;70990;50.618;7.346;2023-08-30T06:19:51;17.95;;;8.80;;
81544;SDS011;70990;50.618;7.346;2023-08-30T06:22:17;17.65;;;8.68;;
81544;SDS011;70990;50.618;7.346;2023-08-30T06:24:43;19.55;;;9.30;;
81544;SDS011;70990;50.618;7.346;2023-08-30T06:27:10;16.00;;;8.60;;
81544;SDS011;70990;50.618;7.346;2023-08-30T06:29:37;19.15;;;9.73;;
81544;SDS011;70990;50.618;7.346;2023-08-30T06:32:03;19.38;;;8.90;;
81544;SDS011;70990;50.618;7.346;2023-08-30T06:34:34;23.85;;;10.07;;
81544;SDS011;70990;50.618;7.346;2023-08-30T06:37:00;19.08;;;9.68;;
81544;SDS011;70990;50.618;7.346;2023-08-30T06:39:32;19.30;;;10.13;;
81544;SDS011;70990;50.618;7.346;2023-08-30T06:41:59;20.58;;;9.70;;
81544;SDS011;70990;50.618;7.346;2023-08-30T06:44:26;18.77;;;9.70;;
81544;SDS011;70990;50.618;7.346;2023-08-30T06:46:53;20.17;;;9.45;;
81544;SDS011;70990;50.618;7.346;2023-08-30T06:49:19;18.77;;;9.48;;
81544;SDS011;70990;50.618;7.346;2023-08-30T06:51:46;21.17;;;10.65;;
81544;SDS011;70990;50.618;7.346;2023-08-30T06:54:12;21.83;;;10.55;;
81544;SDS011;70990;50.618;7.346;2023-08-30T06:56:45;22.17;;;10.48;;
81544;SDS011;70990;50.618;7.346;2023-08-30T06:59:22;18.20;;;10.82;;
81544;SDS011;70990;50.618;7.346;2023-08-30T07:01:49;19.33;;;9.73;;
81544;SDS011;70990;50.618;7.346;2023-08-30T07:04:16;17.63;;;9.55;;
81544;SDS011;70990;50.618;7.346;2023-08-30T07:06:42;19.05;;;9.43;;
81544;SDS011;70990;50.618;7.346;2023-08-30T07:09:09;21.08;;;11.30;;
81544;SDS011;70990;50.618;7.346;2023-08-30T07:11:35;18.15;;;9.55;;
81544;SDS011;70990;50.618;7.346;2023-08-30T07:14:02;17.00;;;9.50;;
81544;SDS011;70990;50.618;7.346;2023-08-30T07:16:28;18.65;;;10.35;;
81544;SDS011;70990;50.618;7.346;2023-08-30T07:18:56;19.17;;;9.82;;
81544;SDS011;70990;50.618;7.346;2023-08-30T07:21:22;18.50;;;9.95;;
81544;SDS011;70990;50.618;7.346;2023-08-30T07:23:49;19.45;;;9.75;;
81544;SDS011;70990;50.618;7.346;2023-08-30T07:26:19;18.35;;;8.82;;
81544;SDS011;70990;50.618;7.346;2023-08-30T07:28:45;15.07;;;8.38;;
81544;SDS011;70990;50.618;7.346;2023-08-30T07:31:12;18.75;;;8.25;;
81544;SDS011;70990;50.618;7.346;2023-08-30T07:33:38;16.90;;;8.50;;
81544;SDS011;70990;50.618;7.346;2023-08-30T07:36:05;16.45;;;8.95;;
81544;SDS011;70990;50.618;7.346;2023-08-30T07:38:32;15.43;;;8.65;;
81544;SDS011;70990;50.618;7.346;2023-08-30T07:40:58;17.70;;;9.13;;
81544;SDS011;70990;50.618;7.346;2023-08-30T07:43:25;16.67;;;8.98;;
81544;SDS011;70990;50.618;7.346;2023-08-30T07:45:51;17.42;;;8.52;;
81544;SDS011;70990;50.618;7.346;2023-08-30T07:48:18;14.15;;;7.53;;
81544;SDS011;70990;50.618;7.346;2023-08-30T07:50:44;15.57;;;7.45;;
81544;SDS011;70990;50.618;7.346;2023-08-30T07:53:11;14.63;;;7.80;;
81544;SDS011;70990;50.618;7.346;2023-08-30T07:55:38;12.65;;;6.65;;
81544;SDS011;70990;50.618;7.346;2023-08-30T07:58:04;13.68;;;6.63;;
81544;SDS011;70990;50.618;7.346;2023-08-30T08:00:31;12.32;;;6.68;;
81544;SDS011;70990;50.618;7.346;2023-08-30T08:03:00;11.48;;;6.18;;
81544;SDS011;70990;50.618;7.346;2023-08-30T08:05:27;12.32;;;6.55;;
81544;SDS011;70990;50.618;7.346;2023-08-30T08:07:53;13.45;;;7.43;;
81544;SDS011;70990;50.618;7.346;2023-08-30T08:10:20;14.73;;;8.05;;
81544;SDS011;70990;50.618;7.346;2023-08-30T08:12:47;15.18;;;7.00;;
81544;SDS011;70990;50.618;7.346;2023-08-30T08:15:13;11.77;;;6.68;;
81544;SDS011;70990;50.618;7.346;2023-08-30T08:17:40;9.57;;;5.70;;
81544;SDS011;70990;50.618;7.346;2023-08-30T08:20:07;12.35;;;5.50;;
81544;SDS011;70990;50.618;7.346;2023-08-30T08:22:33;11.38;;;5.63;;
81544;SDS011;70990;50.618;7.346;2023-08-30T08:25:00;10.50;;;5.20;;
81544;SDS011;70990;50.618;7.346;2023-08-30T08:27:26;8.07;;;4.68;;
81544;SDS011;70990;50.618;7.346;2023-08-30T08:29:53;11.43;;;5.40;;
81544;SDS011;70990;50.618;7.346;2023-08-30T08:32:19;8.32;;;4.72;;
81544;SDS011;70990;50.618;7.346;2023-08-30T08:34:46;10.02;;;4.32;;
81544;SDS011;70990;50.618;7.346;2023-08-30T08:37:12;6.82;;;4.03;;
81544;SDS011;70990;50.618;7.346;2023-08-30T08:39:39;6.90;;;3.10;;
81544;SDS011;70990;50.618;7.346;2023-08-30T08:42:05;6.75;;;2.83;;
81544;SDS011;70990;50.618;7.346;2023-08-30T08:44:32;6.95;;;2.70;;
81544;SDS011;70990;50.618;7.346;2023-08-30T08:47:01;6.22;;;2.72;;
81544;SDS011;70990;50.618;7.346;2023-08-30T08:49:27;5.90;;;3.38;;
81544;SDS011;70990;50.618;7.346;2023-08-30T08:51:55;5.47;;;2.80;;
81544;SDS011;70990;50.618;7.346;2023-08-30T08:54:21;5.70;;;2.58;;
81544;SDS011;70990;50.618;7.346;2023-08-30T08:56:48;6.18;;;2.25;;
81544;SDS011;70990;50.618;7.346;2023-08-30T08:59:16;6.65;;;2.38;;
81544;SDS011;70990;50.618;7.346;2023-08-30T09:01:42;5.53;;;2.60;;
81544;SDS011;70990;50.618;7.346;2023-08-30T09:04:10;8.30;;;2.78;;
81544;SDS011;70990;50.618;7.346;2023-08-30T09:06:37;6.70;;;2.42;;
81544;SDS011;70990;50.618;7.346;2023-08-30T09:09:05;5.78;;;2.60;;
81544;SDS011;70990;50.618;7.346;2023-08-30T09:11:32;6.10;;;2.28;;
81544;SDS011;70990;50.618;7.346;2023-08-30T09:14:16;6.35;;;2.35;;
81544;SDS011;70990;50.618;7.346;2023-08-30T09:16:53;7.72;;;3.40;;
81544;SDS011;70990;50.618;7.346;2023-08-30T09:19:23;5.93;;;2.60;;
81544;SDS011;70990;50.618;7.346;2023-08-30T09:21:54;6.05;;;2.55;;
81544;SDS011;70990;50.618;7.346;2023-08-30T09:24:21;9.43;;;2.85;;
81544;SDS011;70990;50.618;7.346;2023-08-30T09:26:49;6.40;;;2.80;;
81544;SDS011;70990;50.618;7.346;2023-08-30T09:29:20;6.68;;;2.78;;
81544;SDS011;70990;50.618;7.346;2023-08-30T09:31:50;6.38;;;2.42;;
81544;SDS011;70990;50.618;7.346;2023-08-30T09:34:21;7.60;;;3.03;;
81544;SDS011;70990;50.618;7.346;2023-08-30T09:36:49;7.53;;;3.35;;
81544;SDS011;70990;50.618;7.346;2023-08-30T09:39:16;6.65;;;3.15;;
81544;SDS011;70990;50.618;7.346;2023-08-30T09:44:13;6.50;;;3.00;;
81544;SDS011;70990;50.618;7.346;2023-08-30T09:46:44;6.45;;;3.17;;
81544;SDS011;70990;50.618;7.346;2023-08-30T09:49:17;7.15;;;3.13;;
81544;SDS011;70990;50.618;7.346;2023-08-30T09:51:45;7.00;;;3.05;;
81544;SDS011;70990;50.618;7.346;2023-08-30T09:54:17;5.07;;;2.50;;
81544;SDS011;70990;50.618;7.346;2023-08-30T09:56:50;6.32;;;3.22;;
81544;SDS011;70990;50.618;7.346;2023-08-30T09:59:16;8.52;;;2.88;;
81544;SDS011;70990;50.618;7.346;2023-08-30T10:01:43;5.75;;;2.78;;
81544;SDS011;70990;50.618;7.346;2023-08-30T10:04:12;6.93;;;2.47;;
81544;SDS011;70990;50.618;7.346;2023-08-30T10:06:39;7.15;;;2.85;;
81544;SDS011;70990;50.618;7.346;2023-08-30T10:09:07;5.07;;;2.35;;
81544;SDS011;70990;50.618;7.346;2023-08-30T10:11:35;5.93;;;2.38;;
81544;SDS011;70990;50.618;7.346;2023-08-30T10:14:06;7.22;;;2.60;;
81544;SDS011;70990;50.618;7.346;2023-08-30T10:16:51;7.07;;;2.33;;
81544;SDS011;70990;50.618;7.346;2023-08-30T10:19:23;4.78;;;2.05;;
81544;SDS011;70990;50.618;7.346;2023-08-30T10:22:01;6.55;;;2.35;;
81544;SDS011;70990;50.618;7.346;2023-08-30T10:24:32;5.18;;;2.35;;
81544;SDS011;70990;50.618;7.346;2023-08-30T10:27:23;6.60;;;2.05;;
81544;SDS011;70990;50.618;7.346;2023-08-30T10:29:53;4.85;;;2.35;;
81544;SDS011;70990;50.618;7.346;2023-08-30T10:32:21;4.85;;;2.30;;
81544;SDS011;70990;50.618;7.346;2023-08-30T10:34:49;5.30;;;2.20;;
81544;SDS011;70990;50.618;7.346;2023-08-30T10:37:21;5.28;;;2.00;;
81544;SDS011;70990;50.618;7.346;2023-08-30T10:39:49;5.30;;;2.13;;
81544;SDS011;70990;50.618;7.346;2023-08-30T10:42:16;5.40;;;2.10;;
81544;SDS011;70990;50.618;7.346;2023-08-30T10:44:49;4.25;;;1.95;;
81544;SDS011;70990;50.618;7.346;2023-08-30T10:47:23;4.95;;;1.90;;
81544;SDS011;70990;50.618;7.346;2023-08-30T10:49:53;5.10;;;1.90;;
81544;SDS011;70990;50.618;7.346;2023-08-30T10:52:20;8.27;;;2.25;;
81544;SDS011;70990;50.618;7.346;2023-08-30T10:54:47;4.80;;;2.13;;
81544;SDS011;70990;50.618;7.346;2023-08-30T10:57:15;4.43;;;2.00;;
81544;SDS011;70990;50.618;7.346;2023-08-30T11:02:37;5.68;;;1.90;;
81544;SDS011;70990;50.618;7.346;2023-08-30T11:05:08;6.47;;;2.00;;
81544;SDS011;70990;50.618;7.346;2023-08-30T11:10:03;5.53;;;2.00;;
81544;SDS011;70990;50.618;7.346;2023-08-30T11:12:31;4.55;;;1.80;;
81544;SDS011;70990;50.618;7.346;2023-08-30T11:14:57;4.97;;;1.88;;
81544;SDS011;70990;50.618;7.346;2023-08-30T11:17:25;4.80;;;2.28;;
81544;SDS011;70990;50.618;7.346;2023-08-30T11:20:05;5.65;;;1.90;;
81544;SDS011;70990;50.618;7.346;2023-08-30T11:22:37;6.00;;;1.52;;
81544;SDS011;70990;50.618;7.346;2023-08-30T11:25:09;3.03;;;1.30;;
81544;SDS011;70990;50.618;7.346;2023-08-30T11:27:39;5.78;;;2.08;;
81544;SDS011;70990;50.618;7.346;2023-08-30T11:30:06;4.15;;;1.65;;
81544;SDS011;70990;50.618;7.346;2023-08-30T11:35:02;4.10;;;1.52;;
81544;SDS011;70990;50.618;7.346;2023-08-30T11:37:29;5.20;;;1.90;;
81544;SDS011;70990;50.618;7.346;2023-08-30T11:39:57;5.70;;;2.22;;
81544;SDS011;70990;50.618;7.346;2023-08-30T11:42:25;5.43;;;2.10;;
81544;SDS011;70990;50.618;7.346;2023-08-30T11:44:52;4.97;;;2.05;;
81544;SDS011;70990;50.618;7.346;2023-08-30T11:47:25;6.63;;;2.00;;
81544;SDS011;70990;50.618;7.346;2023-08-30T11:49:52;7.38;;;2.20;;
81544;SDS011;70990;50.618;7.346;2023-08-30T11:52:22;4.95;;;1.73;;
81544;SDS011;70990;50.618;7.346;2023-08-30T11:54:50;4.90;;;1.67;;
81544;SDS011;70990;50.618;7.346;2023-08-30T11:57:17;4.90;;;1.80;;
81544;SDS011;70990;50.618;7.346;2023-08-30T11:59:44;6.10;;;1.63;;
81544;SDS011;70990;50.618;7.346;2023-08-30T12:02:11;4.60;;;1.88;;
81544;SDS011;70990;50.618;7.346;2023-08-30T12:04:42;10.05;;;1.90;;
81544;SDS011;70990;50.618;7.346;2023-08-30T12:07:10;5.70;;;1.70;;
81544;SDS011;70990;50.618;7.346;2023-08-30T12:09:36;4.00;;;1.77;;
81544;SDS011;70990;50.618;7.346;2023-08-30T12:12:06;4.70;;;1.60;;
81544;SDS011;70990;50.618;7.346;2023-08-30T12:14:35;6.07;;;1.75;;
81544;SDS011;70990;50.618;7.346;2023-08-30T12:17:03;6.00;;;1.85;;
81544;SDS011;70990;50.618;7.346;2023-08-30T12:19:33;5.35;;;1.88;;
81544;SDS011;70990;50.618;7.346;2023-08-30T12:22:04;5.07;;;1.92;;
81544;SDS011;70990;50.618;7.346;2023-08-30T12:24:41;4.65;;;1.67;;
81544;SDS011;70990;50.618;7.346;2023-08-30T12:27:08;5.07;;;1.95;;
81544;SDS011;70990;50.618;7.346;2023-08-30T12:29:35;5.63;;;1.77;;
81544;SDS011;70990;50.618;7.346;2023-08-30T12:32:01;4.55;;;1.60;;
81544;SDS011;70990;50.618;7.346;2023-08-30T12:34:28;5.40;;;1.77;;
81544;SDS011;70990;50.618;7.346;2023-08-30T12:36:55;4.15;;;1.50;;
81544;SDS011;70990;50.618;7.346;2023-08-30T12:39:21;4.88;;;1.60;;
81544;SDS011;70990;50.618;7.346;2023-08-30T12:41:48;5.75;;;1.70;;
81544;SDS011;70990;50.618;7.346;2023-08-30T12:44:15;5.32;;;1.73;;
81544;SDS011;70990;50.618;7.346;2023-08-30T12:46:41;10.82;;;2.67;;
81544;SDS011;70990;50.618;7.346;2023-08-30T12:49:07;7.70;;;2.20;;
81544;SDS011;70990;50.618;7.346;2023-08-30T12:51:34;5.00;;;1.65;;
81544;SDS011;70990;50.618;7.346;2023-08-30T12:54:00;8.25;;;2.88;;
81544;SDS011;70990;50.618;7.346;2023-08-30T12:56:27;5.43;;;2.10;;
81544;SDS011;70990;50.618;7.346;2023-08-30T12:58:56;8.23;;;2.70;;
81544;SDS011;70990;50.618;7.346;2023-08-30T13:01:22;6.45;;;1.95;;
81544;SDS011;70990;50.618;7.346;2023-08-30T13:03:49;6.60;;;2.08;;
81544;SDS011;70990;50.618;7.346;2023-08-30T13:06:16;2.83;;;1.50;;
81544;SDS011;70990;50.618;7.346;2023-08-30T13:08:42;3.92;;;1.63;;
81544;SDS011;70990;50.618;7.346;2023-08-30T13:11:09;5.82;;;2.17;;
81544;SDS011;70990;50.618;7.346;2023-08-30T13:13:35;5.13;;;1.90;;
81544;SDS011;70990;50.618;7.346;2023-08-30T13:16:02;5.05;;;2.17;;
81544;SDS011;70990;50.618;7.346;2023-08-30T13:18:28;4.05;;;1.98;;
81544;SDS011;70990;50.618;7.346;2023-08-30T13:20:55;4.80;;;2.25;;
81544;SDS011;70990;50.618;7.346;2023-08-30T13:23:21;5.93;;;2.15;;
81544;SDS011;70990;50.618;7.346;2023-08-30T13:25:48;5.85;;;2.13;;
81544;SDS011;70990;50.618;7.346;2023-08-30T13:28:14;4.72;;;2.00;;
81544;SDS011;70990;50.618;7.346;2023-08-30T13:30:44;7.40;;;2.85;;
81544;SDS011;70990;50.618;7.346;2023-08-30T13:33:12;5.68;;;2.22;;
81544;SDS011;70990;50.618;7.346;2023-08-30T13:35:39;6.70;;;2.38;;
81544;SDS011;70990;50.618;7.346;2023-08-30T13:38:06;8.73;;;2.42;;
81544;SDS011;70990;50.618;7.346;2023-08-30T13:40:32;5.18;;;2.00;;
81544;SDS011;70990;50.618;7.346;2023-08-30T13:42:59;6.47;;;2.42;;
81544;SDS011;70990;50.618;7.346;2023-08-30T13:45:25;5.15;;;2.15;;
81544;SDS011;70990;50.618;7.346;2023-08-30T13:47:52;5.85;;;2.45;;
81544;SDS011;70990;50.618;7.346;2023-08-30T13:50:18;4.70;;;2.00;;
81544;SDS011;70990;50.618;7.346;2023-08-30T13:52:45;5.63;;;2.40;;
81544;SDS011;70990;50.618;7.346;2023-08-30T13:55:12;4.80;;;2.45;;
81544;SDS011;70990;50.618;7.346;2023-08-30T13:57:38;5.80;;;2.40;;
81544;SDS011;70990;50.618;7.346;2023-08-30T14:00:05;5.43;;;2.40;;
81544;SDS011;70990;50.618;7.346;2023-08-30T14:02:32;8.48;;;3.38;;
81544;SDS011;70990;50.618;7.346;2023-08-30T14:04:59;6.00;;;1.95;;
81544;SDS011;70990;50.618;7.346;2023-08-30T14:07:25;4.70;;;2.17;;
81544;SDS011;70990;50.618;7.346;2023-08-30T14:09:52;6.63;;;2.40;;
81544;SDS011;70990;50.618;7.346;2023-08-30T14:12:18;4.70;;;2.22;;
81544;SDS011;70990;50.618;7.346;2023-08-30T14:14:45;4.40;;;2.03;;
81544;SDS011;70990;50.618;7.346;2023-08-30T14:17:11;6.07;;;2.15;;
81544;SDS011;70990;50.618;7.346;2023-08-30T14:19:38;6.68;;;2.65;;
81544;SDS011;70990;50.618;7.346;2023-08-30T14:22:04;8.50;;;2.55;;
81544;SDS011;70990;50.618;7.346;2023-08-30T14:24:32;5.53;;;1.90;;
81544;SDS011;70990;50.618;7.346;2023-08-30T14:27:03;4.55;;;1.98;;
81544;SDS011;70990;50.618;7.346;2023-08-30T14:29:30;4.97;;;2.28;;
81544;SDS011;70990;50.618;7.346;2023-08-30T14:31:56;3.92;;;1.77;;
81544;SDS011;70990;50.618;7.346;2023-08-30T14:34:23;6.68;;;2.10;;
81544;SDS011;70990;50.618;7.346;2023-08-30T14:36:50;4.90;;;1.88;;
81544;SDS011;70990;50.618;7.346;2023-08-30T14:39:17;5.07;;;1.63;;
81544;SDS011;70990;50.618;7.346;2023-08-30T14:41:43;4.28;;;1.63;;
81544;SDS011;70990;50.618;7.346;2023-08-30T14:44:10;4.45;;;1.80;;
81544;SDS011;70990;50.618;7.346;2023-08-30T14:46:37;4.05;;;1.50;;
81544;SDS011;70990;50.618;7.346;2023-08-30T14:49:04;3.13;;;1.48;;
81544;SDS011;70990;50.618;7.346;2023-08-30T14:51:30;3.47;;;1.60;;
81544;SDS011;70990;50.618;7.346;2023-08-30T14:53:57;3.88;;;1.77;;
81544;SDS011;70990;50.618;7.346;2023-08-30T14:56:25;4.75;;;1.75;;
81544;SDS011;70990;50.618;7.346;2023-08-30T14:58:52;2.95;;;1.60;;
81544;SDS011;70990;50.618;7.346;2023-08-30T15:01:19;4.90;;;2.05;;
81544;SDS011;70990;50.618;7.346;2023-08-30T15:03:46;4.57;;;2.00;;